createdAt,value
2018-06-20T00:00:40.145Z,17.25
2018-06-20T00:03:08.767Z,17.27
2018-06-20T00:05:37.656Z,17.27
2018-06-20T00:08:06.356Z,17.25
2018-06-20T00:10:35.074Z,17.27
2018-06-20T00:13:03.965Z,17.22
2018-06-20T00:15:39.315Z,17.21
2018-06-20T00:18:08.022Z,17.17
2018-06-20T00:20:36.904Z,17.12
2018-06-20T00:23:05.720Z,17.08
2018-06-20T00:25:34.512Z,17.07
2018-06-20T00:28:03.318Z,17.05
2018-06-20T00:30:32.023Z,17.03
2018-06-20T00:33:00.814Z,17.00
2018-06-20T00:35:29.630Z,16.99
2018-06-20T00:37:58.533Z,16.96
2018-06-20T00:40:27.262Z,16.94
2018-06-20T00:42:56.199Z,16.89
2018-06-20T00:45:24.870Z,16.83
2018-06-20T00:47:53.581Z,16.79
2018-06-20T00:50:22.300Z,16.75
2018-06-20T00:52:51.087Z,16.73
2018-06-20T00:56:28.426Z,16.70
2018-06-20T00:58:57.185Z,16.69
2018-06-20T01:01:26.280Z,16.67
2018-06-20T01:03:55.386Z,16.66
2018-06-20T01:12:14.574Z,16.55
2018-06-20T01:14:43.008Z,16.49
2018-06-20T01:17:11.466Z,16.48
2018-06-20T01:19:39.870Z,16.42
2018-06-20T01:22:08.213Z,16.41
2018-06-20T01:24:36.574Z,16.40
2018-06-20T01:27:04.970Z,16.36
2018-06-20T01:29:33.355Z,16.32
2018-06-20T01:32:01.665Z,16.33
2018-06-20T01:34:30.089Z,16.33
2018-06-20T01:36:58.428Z,16.32
2018-06-20T01:39:26.778Z,16.31
2018-06-20T01:41:55.229Z,16.27
2018-06-20T01:44:23.679Z,16.27
2018-06-20T01:46:52.101Z,16.23
2018-06-20T01:49:20.488Z,16.21
2018-06-20T01:51:48.966Z,16.21
2018-06-20T01:54:17.514Z,16.18
2018-06-20T01:56:45.831Z,16.16
2018-06-20T01:59:14.210Z,16.14
2018-06-20T02:01:42.693Z,16.11
2018-06-20T02:04:11.060Z,16.10
2018-06-20T02:06:39.390Z,16.08
2018-06-20T02:09:08.401Z,16.05
2018-06-20T02:11:36.827Z,16.06
2018-06-20T02:14:05.225Z,16.11
2018-06-20T02:16:33.605Z,16.15
2018-06-20T02:19:02.034Z,16.19
2018-06-20T02:21:30.605Z,16.24
2018-06-20T02:23:59.000Z,16.28
2018-06-20T02:26:27.377Z,16.33
2018-06-20T02:28:55.737Z,16.40
2018-06-20T02:31:24.084Z,16.47
2018-06-20T02:33:52.537Z,16.55
2018-06-20T02:36:26.011Z,16.62
2018-06-20T02:38:54.365Z,16.70
2018-06-20T02:41:22.754Z,16.76
2018-06-20T02:43:51.163Z,16.88
2018-06-20T02:46:19.457Z,16.93
2018-06-20T02:48:47.912Z,16.95
2018-06-20T02:51:16.262Z,16.93
2018-06-20T02:53:44.562Z,16.89
2018-06-20T02:56:12.987Z,17.02
2018-06-20T02:58:41.347Z,17.15
2018-06-20T03:01:09.732Z,17.18
2018-06-20T03:03:38.480Z,17.16
2018-06-20T03:06:07.355Z,17.06
2018-06-20T03:08:35.884Z,16.95
2018-06-20T03:11:04.372Z,17.27
2018-06-20T03:13:32.847Z,17.39
2018-06-20T03:16:01.199Z,17.54
2018-06-20T03:18:29.629Z,17.32
2018-06-20T03:20:58.036Z,17.10
2018-06-20T03:23:26.478Z,16.97
2018-06-20T03:25:54.907Z,16.83
2018-06-20T03:28:23.308Z,16.74
2018-06-20T03:30:51.678Z,16.74
2018-06-20T03:33:20.074Z,16.69
2018-06-20T03:35:48.409Z,16.77
2018-06-20T03:38:16.750Z,16.80
2018-06-20T03:40:45.150Z,16.79
2018-06-20T03:43:13.456Z,16.83
2018-06-20T03:45:41.783Z,17.07
2018-06-20T03:48:10.259Z,17.01
2018-06-20T03:50:38.671Z,17.02
2018-06-20T03:53:07.109Z,17.01
2018-06-20T03:55:35.502Z,17.14
2018-06-20T03:58:03.975Z,17.10
2018-06-20T04:00:32.495Z,16.99
2018-06-20T04:03:00.863Z,17.00
2018-06-20T04:05:30.672Z,17.06
2018-06-20T04:07:59.612Z,17.18
2018-06-20T04:10:28.063Z,17.13
2018-06-20T04:12:56.402Z,17.16
2018-06-20T04:15:24.929Z,17.28
2018-06-20T04:17:53.326Z,17.24
2018-06-20T04:20:21.634Z,17.29
2018-06-20T04:22:49.977Z,17.37
2018-06-20T04:25:18.381Z,17.36
2018-06-20T04:27:46.782Z,17.44
2018-06-20T04:30:15.097Z,17.52
2018-06-20T04:32:43.464Z,17.54
2018-06-20T04:35:11.844Z,17.70
2018-06-20T04:37:40.196Z,17.68
2018-06-20T04:40:08.773Z,17.75
2018-06-20T04:42:37.397Z,17.87
2018-06-20T04:45:06.160Z,17.87
2018-06-20T04:47:34.513Z,18.08
2018-06-20T04:50:03.069Z,18.15
2018-06-20T04:52:31.447Z,18.27
2018-06-20T04:54:59.834Z,18.21
2018-06-20T04:57:28.214Z,18.37
2018-06-20T04:59:56.635Z,18.44
2018-06-20T05:02:24.986Z,18.47
2018-06-20T05:04:53.356Z,18.57
2018-06-20T05:07:21.657Z,18.69
2018-06-20T05:09:50.008Z,18.74
2018-06-20T05:12:18.384Z,19.08
2018-06-20T05:14:46.699Z,19.27
2018-06-20T05:17:15.009Z,19.56
2018-06-20T05:19:43.348Z,19.72
2018-06-20T05:22:11.883Z,20.11
2018-06-20T05:24:40.218Z,20.12
2018-06-20T05:27:08.621Z,20.04
2018-06-20T05:29:36.950Z,20.07
2018-06-20T05:32:05.261Z,20.00
2018-06-20T05:34:33.642Z,20.05
2018-06-20T05:37:02.082Z,20.16
2018-06-20T05:39:30.417Z,20.36
2018-06-20T05:41:58.765Z,20.36
2018-06-20T05:44:27.158Z,20.48
2018-06-20T05:46:55.523Z,20.49
2018-06-20T05:49:23.822Z,20.60
2018-06-20T05:51:52.146Z,20.70
2018-06-20T05:54:20.535Z,20.88
2018-06-20T05:56:48.902Z,20.63
2018-06-20T05:59:17.218Z,20.92
2018-06-20T06:01:45.493Z,21.02
2018-06-20T06:04:13.841Z,21.16
2018-06-20T06:06:42.133Z,21.36
2018-06-20T06:09:10.401Z,21.38
2018-06-20T06:11:38.777Z,21.50
2018-06-20T06:14:07.104Z,21.60
2018-06-20T06:16:35.438Z,21.30
2018-06-20T06:19:03.811Z,21.68
2018-06-20T06:21:32.135Z,21.70
2018-06-20T06:24:00.509Z,21.96
2018-06-20T06:26:28.867Z,21.86
2018-06-20T06:28:57.210Z,21.79
2018-06-20T06:31:25.600Z,21.80
2018-06-20T06:33:53.992Z,22.08
2018-06-20T06:36:22.406Z,22.35
2018-06-20T06:38:50.713Z,22.59
2018-06-20T06:41:19.054Z,22.76
2018-06-20T06:43:47.425Z,22.82
2018-06-20T06:46:15.746Z,22.46
2018-06-20T06:48:44.117Z,22.76
2018-06-20T06:51:12.417Z,22.90
2018-06-20T06:53:40.736Z,23.06
2018-06-20T06:56:09.070Z,23.29
2018-06-20T06:58:37.450Z,23.24
2018-06-20T07:01:05.874Z,23.42
2018-06-20T07:03:34.194Z,23.49
2018-06-20T07:06:02.567Z,23.57
2018-06-20T07:08:30.927Z,23.27
2018-06-20T07:10:59.274Z,23.64
2018-06-20T07:13:27.778Z,23.90
2018-06-20T07:15:56.106Z,23.84
2018-06-20T07:18:24.462Z,23.69
2018-06-20T07:20:52.886Z,23.92
2018-06-20T07:23:21.180Z,23.97
2018-06-20T07:25:49.621Z,24.04
2018-06-20T07:28:17.946Z,24.26
2018-06-20T07:30:46.242Z,24.40
2018-06-20T07:33:14.612Z,24.31
2018-06-20T07:35:43.024Z,24.48
2018-06-20T07:38:11.182Z,24.73
2018-06-20T07:40:39.602Z,24.69
2018-06-20T07:43:07.881Z,24.70
2018-06-20T07:45:36.321Z,24.30
2018-06-20T07:48:04.666Z,24.64
2018-06-20T07:50:33.052Z,24.87
2018-06-20T07:53:01.374Z,25.14
2018-06-20T07:55:36.115Z,25.08
2018-06-20T07:58:04.462Z,25.06
2018-06-20T08:00:38.250Z,25.11
2018-06-20T08:03:19.246Z,25.39
2018-06-20T08:05:52.936Z,25.44
2018-06-20T08:08:26.517Z,25.66
2018-06-20T08:11:00.107Z,25.92
2018-06-20T08:13:33.762Z,25.84
2018-06-20T08:16:07.524Z,26.22
2018-06-20T08:18:41.169Z,26.27
2018-06-20T08:21:09.540Z,26.45
2018-06-20T08:23:37.902Z,26.40
2018-06-20T08:26:06.252Z,26.34
2018-06-20T08:28:34.614Z,26.52
2018-06-20T08:31:02.978Z,26.51
2018-06-20T08:33:31.268Z,26.55
2018-06-20T08:35:59.580Z,26.64
2018-06-20T08:38:27.897Z,26.81
2018-06-20T08:40:56.225Z,26.89
2018-06-20T08:43:24.553Z,26.76
2018-06-20T08:45:55.812Z,26.46
2018-06-20T08:48:24.162Z,26.69
2018-06-20T08:50:52.468Z,26.49
2018-06-20T08:53:20.857Z,26.48
2018-06-20T08:55:49.329Z,26.70
2018-06-20T08:58:17.761Z,26.83
2018-06-20T09:00:51.423Z,26.87
2018-06-20T09:03:19.772Z,27.20
2018-06-20T09:05:53.451Z,27.15
2018-06-20T09:08:26.964Z,27.22
2018-06-20T09:11:00.672Z,27.15
2018-06-20T09:13:34.277Z,27.35
2018-06-20T09:16:07.819Z,27.38
2018-06-20T09:18:41.544Z,27.75
2018-06-20T09:21:09.929Z,27.81
2018-06-20T09:23:38.354Z,27.92
2018-06-20T09:26:06.688Z,27.91
2018-06-20T09:28:34.956Z,28.09
2018-06-20T09:31:03.357Z,28.29
2018-06-20T09:33:31.732Z,28.29
2018-06-20T09:36:00.081Z,28.30
2018-06-20T09:38:28.399Z,28.26
2018-06-20T09:40:56.710Z,28.49
2018-06-20T09:43:25.058Z,28.44
2018-06-20T09:45:53.412Z,28.32
2018-06-20T09:48:21.844Z,28.58
2018-06-20T09:50:57.466Z,28.77
2018-06-20T09:53:25.840Z,28.95
2018-06-20T09:55:54.341Z,28.96
2018-06-20T09:58:22.753Z,29.06
2018-06-20T10:00:56.549Z,28.55
2018-06-20T10:03:30.098Z,28.81
2018-06-20T10:06:03.597Z,29.06
2018-06-20T10:08:37.354Z,29.39
2018-06-20T10:11:11.162Z,29.42
2018-06-20T10:13:46.485Z,29.40
2018-06-20T10:16:16.742Z,29.49
2018-06-20T10:18:45.196Z,29.74
2018-06-20T10:21:13.576Z,29.44
2018-06-20T10:23:42.022Z,29.41
2018-06-20T10:26:10.423Z,29.49
2018-06-20T10:28:38.819Z,29.58
2018-06-20T10:31:07.101Z,29.66
2018-06-20T10:33:35.520Z,29.40
2018-06-20T10:36:03.912Z,29.42
2018-06-20T10:38:32.307Z,29.66
2018-06-20T10:41:00.659Z,29.99
2018-06-20T10:43:28.979Z,30.24
2018-06-20T10:46:02.650Z,30.41
2018-06-20T10:48:30.909Z,29.79
2018-06-20T10:50:59.252Z,30.04
2018-06-20T10:53:27.659Z,30.17
2018-06-20T10:55:56.038Z,30.19
2018-06-20T10:58:29.705Z,30.24
2018-06-20T11:01:03.372Z,29.97
2018-06-20T11:03:37.099Z,30.21
2018-06-20T11:06:30.938Z,30.08
2018-06-20T11:09:06.117Z,30.42
2018-06-20T11:11:39.782Z,30.33
2018-06-20T11:14:08.550Z,30.59
2018-06-20T11:16:36.953Z,30.53
2018-06-20T11:19:05.305Z,30.41
2018-06-20T11:21:33.716Z,30.12
2018-06-20T11:24:02.094Z,30.52
2018-06-20T11:26:30.429Z,30.51
2018-06-20T11:28:58.917Z,30.34
2018-06-20T11:31:27.284Z,29.79
2018-06-20T11:33:55.697Z,30.13
2018-06-20T11:36:24.045Z,30.45
2018-06-20T11:38:52.349Z,30.52
2018-06-20T11:41:20.692Z,30.94
2018-06-20T11:43:49.111Z,30.96
2018-06-20T11:46:22.707Z,31.51
2018-06-20T11:48:51.043Z,31.78
2018-06-20T11:51:19.364Z,31.60
2018-06-20T11:53:47.751Z,30.86
2018-06-20T11:56:16.048Z,31.23
2018-06-20T11:58:49.737Z,31.75
2018-06-20T12:01:23.396Z,32.37
2018-06-20T12:03:57.160Z,32.66
2018-06-20T12:06:30.829Z,33.06
2018-06-20T12:09:04.568Z,33.89
2018-06-20T12:11:37.997Z,35.59
2018-06-20T12:14:11.737Z,36.30
2018-06-20T12:16:40.076Z,37.30
2018-06-20T12:19:13.677Z,37.56
2018-06-20T12:21:47.478Z,38.27
2018-06-20T12:24:21.212Z,39.21
2018-06-20T12:26:54.933Z,39.85
2018-06-20T12:29:28.573Z,40.51
2018-06-20T12:32:02.188Z,40.85
2018-06-20T12:34:35.851Z,39.82
2018-06-20T12:37:09.618Z,38.49
2018-06-20T12:39:37.133Z,40.60
2018-06-20T12:42:11.026Z,41.47
2018-06-20T12:44:44.696Z,41.73
2018-06-20T12:47:17.800Z,41.93
2018-06-20T12:49:56.621Z,42.45
2018-06-20T12:52:25.011Z,42.45
2018-06-20T12:54:53.387Z,40.38
2018-06-20T12:57:21.721Z,41.26
2018-06-20T12:59:50.072Z,41.75
2018-06-20T13:02:18.435Z,42.45
2018-06-20T13:04:46.755Z,42.75
2018-06-20T13:07:15.034Z,42.68
2018-06-20T13:09:43.380Z,42.85
2018-06-20T13:12:11.847Z,42.98
2018-06-20T13:14:40.268Z,42.25
2018-06-20T13:17:08.749Z,41.89
2018-06-20T13:19:37.189Z,43.98
2018-06-20T13:22:05.520Z,42.42
2018-06-20T13:24:33.951Z,41.77
2018-06-20T13:27:02.296Z,40.08
2018-06-20T13:29:30.628Z,43.11
2018-06-20T13:34:12.710Z,44.70
2018-06-20T13:36:46.524Z,44.61
2018-06-20T13:40:21.887Z,45.74
2018-06-20T13:42:55.596Z,46.04
2018-06-20T13:45:29.329Z,44.72
2018-06-20T13:48:03.066Z,46.35
2018-06-20T13:50:31.525Z,47.49
2018-06-20T13:52:59.886Z,48.06
2018-06-20T13:55:28.280Z,48.66
2018-06-20T13:57:56.708Z,47.01
2018-06-20T14:00:25.157Z,44.26
2018-06-20T14:02:53.505Z,44.74
2018-06-20T14:05:21.882Z,44.72
2018-06-20T14:07:50.407Z,48.16
2018-06-20T14:10:18.787Z,46.27
2018-06-20T14:12:47.193Z,46.80
2018-06-20T14:15:15.607Z,44.61
2018-06-20T14:17:43.908Z,46.90
2018-06-20T14:20:17.504Z,46.17
2018-06-20T14:22:45.861Z,49.02
2018-06-20T14:25:14.163Z,48.08
2018-06-20T14:27:42.528Z,48.17
2018-06-20T14:30:10.925Z,49.79
2018-06-20T14:32:44.595Z,47.54
2018-06-20T14:35:18.407Z,49.24
2018-06-20T14:37:52.214Z,49.54
2018-06-20T14:40:25.802Z,50.08
2018-06-20T14:42:59.425Z,51.95
2018-06-20T14:45:33.028Z,50.72
2018-06-20T14:48:01.488Z,52.19
2018-06-20T14:50:29.952Z,50.40
2018-06-20T14:52:58.376Z,50.52
2018-06-20T14:55:26.884Z,51.02
2018-06-20T14:57:55.363Z,50.09
2018-06-20T15:00:23.860Z,51.35
2018-06-20T15:03:53.720Z,51.37
2018-06-20T15:06:22.043Z,49.84
2018-06-20T15:08:50.619Z,50.84
2018-06-20T15:11:19.179Z,50.02
2018-06-20T15:13:47.533Z,50.96
2018-06-20T15:16:21.247Z,49.88
2018-06-20T15:18:49.828Z,49.79
2018-06-20T15:21:19.033Z,48.74
2018-06-20T15:23:47.452Z,51.21
2018-06-20T15:26:21.162Z,52.82
2018-06-20T15:28:54.657Z,53.17
2018-06-20T15:31:29.285Z,54.04
2018-06-20T15:34:03.239Z,51.01
2018-06-20T15:36:37.208Z,49.59
2018-06-20T15:39:07.699Z,51.56
2018-06-20T15:41:36.069Z,52.08
2018-06-20T15:44:05.081Z,54.11
2018-06-20T15:46:33.597Z,53.61
2018-06-20T15:49:01.947Z,52.38
2018-06-20T15:51:30.397Z,53.32
2018-06-20T15:53:58.788Z,51.53
2018-06-20T15:56:27.520Z,50.88
2018-06-20T15:58:56.037Z,51.31
2018-06-20T16:01:24.424Z,51.58
2018-06-20T16:03:52.768Z,50.78
2018-06-20T16:06:21.233Z,52.81
2018-06-20T16:08:55.031Z,52.60
2018-06-20T16:11:23.389Z,51.02
2018-06-20T16:13:51.872Z,50.03
2018-06-20T16:16:20.394Z,49.80
2018-06-20T16:18:54.069Z,50.44
2018-06-20T16:21:27.797Z,51.22
2018-06-20T16:24:01.554Z,53.93
2018-06-20T16:26:35.322Z,52.08
2018-06-20T16:29:09.052Z,48.66
2018-06-20T16:31:37.477Z,49.40
2018-06-20T16:34:05.841Z,48.55
2018-06-20T16:36:34.311Z,49.40
2018-06-20T16:39:02.682Z,51.11
2018-06-20T16:41:31.030Z,50.83
2018-06-20T16:43:59.296Z,53.67
2018-06-20T16:46:27.658Z,51.09
2018-06-20T16:48:56.124Z,54.08
2018-06-20T16:51:24.439Z,55.11
2018-06-20T16:53:52.817Z,55.57
2018-06-20T16:56:21.221Z,56.31
2018-06-20T16:58:49.796Z,55.06
2018-06-20T17:01:23.253Z,56.43
2018-06-20T17:03:51.706Z,51.33
2018-06-20T17:06:20.148Z,54.75
2018-06-20T17:08:48.750Z,53.32
2018-06-20T17:11:17.160Z,53.18
2018-06-20T17:13:50.933Z,54.41
2018-06-20T17:16:24.698Z,54.43
2018-06-20T17:18:58.516Z,53.32
2018-06-20T17:22:30.062Z,50.48
2018-06-20T17:25:03.729Z,52.27
2018-06-20T17:27:32.317Z,53.02
2018-06-20T17:30:00.928Z,53.58
2018-06-20T17:32:29.394Z,53.19
2018-06-20T17:34:57.998Z,53.05
2018-06-20T17:37:26.546Z,53.14
2018-06-20T17:39:55.470Z,50.16
2018-06-20T17:42:24.008Z,50.81
2018-06-20T17:44:52.509Z,50.38
2018-06-20T17:47:20.857Z,50.88
2018-06-20T17:49:49.485Z,48.07
2018-06-20T17:52:18.012Z,47.94
2018-06-20T17:54:46.665Z,49.09
2018-06-20T17:57:15.073Z,48.73
2018-06-20T17:59:43.429Z,46.52
2018-06-20T18:02:11.870Z,46.82
2018-06-20T18:04:45.509Z,46.46
2018-06-20T18:07:19.319Z,45.91
2018-06-20T18:09:53.106Z,41.51
2018-06-20T18:12:26.831Z,37.35
2018-06-20T18:15:00.549Z,35.55
2018-06-20T18:17:29.011Z,34.20
2018-06-20T18:19:57.505Z,33.13
2018-06-20T18:22:25.789Z,32.23
2018-06-20T18:24:54.247Z,31.70
2018-06-20T18:27:22.513Z,31.28
2018-06-20T18:29:50.887Z,30.91
2018-06-20T18:32:19.188Z,30.64
2018-06-20T18:34:48.195Z,30.18
2018-06-20T18:37:16.553Z,29.89
2018-06-20T18:39:50.280Z,29.64
2018-06-20T18:42:18.654Z,29.36
2018-06-20T18:44:47.028Z,29.14
2018-06-20T18:47:20.845Z,28.84
2018-06-20T18:49:49.299Z,28.64
2018-06-20T18:52:18.116Z,28.40
2018-06-20T18:54:46.670Z,28.19
2018-06-20T18:57:21.458Z,28.03
2018-06-20T18:59:55.236Z,27.84
2018-06-20T19:02:29.524Z,27.61
2018-06-20T19:05:03.345Z,27.52
2018-06-20T19:07:37.206Z,27.36
2018-06-20T19:10:05.709Z,27.17
2018-06-20T19:12:34.167Z,26.94
2018-06-20T19:15:02.663Z,26.80
2018-06-20T19:17:31.417Z,26.61
2018-06-20T19:20:00.673Z,26.43
2018-06-20T19:22:29.000Z,26.27
2018-06-20T19:24:57.356Z,26.11
2018-06-20T19:27:25.735Z,25.96
2018-06-20T19:29:55.034Z,25.81
2018-06-20T19:32:23.550Z,25.68
2018-06-20T19:34:51.859Z,25.52
2018-06-20T19:37:20.195Z,25.35
2018-06-20T19:39:52.562Z,25.19
2018-06-20T19:42:22.866Z,25.07
2018-06-20T19:44:51.374Z,24.99
2018-06-20T19:47:19.709Z,24.91
2018-06-20T19:49:48.094Z,24.78
2018-06-20T19:52:16.414Z,24.63
2018-06-20T19:54:44.836Z,24.53
2018-06-20T19:57:13.327Z,24.42
2018-06-20T19:59:41.789Z,24.34
2018-06-20T20:02:10.602Z,24.27
2018-06-20T20:04:38.917Z,24.22
2018-06-20T20:07:07.315Z,24.15
2018-06-20T20:09:36.038Z,24.09
2018-06-20T20:12:04.532Z,24.05
2018-06-20T20:14:33.123Z,23.98
2018-06-20T20:17:01.580Z,23.89
2018-06-20T20:19:30.117Z,23.83
2018-06-20T20:21:58.436Z,23.79
2018-06-20T20:24:27.289Z,23.75
2018-06-20T20:26:55.678Z,23.68
2018-06-20T20:29:24.112Z,23.74
2018-06-20T20:31:52.420Z,23.73
2018-06-20T20:34:20.882Z,23.68
2018-06-20T20:36:49.254Z,23.63
2018-06-20T20:39:17.992Z,23.53
2018-06-20T20:41:46.672Z,23.45
2018-06-20T20:44:15.057Z,23.33
2018-06-20T20:46:43.405Z,23.30
2018-06-20T20:49:11.828Z,23.35
2018-06-20T20:51:40.583Z,23.29
2018-06-20T20:54:09.041Z,23.22
2018-06-20T20:56:37.665Z,23.17
2018-06-20T20:59:06.077Z,23.10
2018-06-20T21:01:34.692Z,23.11
2018-06-20T21:04:02.977Z,23.08
2018-06-20T21:06:31.364Z,23.04
2018-06-20T21:08:59.968Z,23.01
2018-06-20T21:11:32.500Z,22.94
2018-06-20T21:14:01.776Z,22.85
2018-06-20T21:16:30.324Z,22.79
2018-06-20T21:18:59.180Z,22.73
2018-06-20T21:21:27.941Z,22.68
2018-06-20T21:23:56.311Z,22.66
2018-06-20T21:26:24.701Z,22.63
2018-06-20T21:28:53.058Z,22.68
2018-06-20T21:31:21.715Z,22.67
2018-06-20T21:33:50.061Z,22.61
2018-06-20T21:36:21.629Z,22.51
2018-06-20T21:38:51.303Z,22.41
2018-06-20T21:41:20.978Z,22.34
2018-06-20T21:43:49.471Z,22.25
2018-06-20T21:46:17.807Z,22.11
2018-06-20T21:48:46.793Z,21.99
2018-06-20T21:51:17.527Z,21.88
2018-06-20T21:53:47.375Z,21.85
2018-06-20T21:56:15.849Z,21.73
2018-06-20T21:58:44.314Z,21.63
2018-06-20T22:01:16.739Z,21.60
2018-06-20T22:03:45.249Z,21.48
2018-06-20T22:06:13.585Z,21.47
2018-06-20T22:08:42.062Z,21.48
2018-06-20T22:11:10.373Z,21.46
2018-06-20T22:13:38.862Z,21.39
2018-06-20T22:16:07.382Z,21.31
2018-06-20T22:18:35.737Z,21.26
2018-06-20T22:21:04.104Z,21.23
2018-06-20T22:23:32.574Z,21.11
2018-06-20T22:26:00.957Z,21.06
2018-06-20T22:28:29.270Z,21.01
2018-06-20T22:30:57.567Z,20.99
2018-06-20T22:33:26.515Z,20.92
2018-06-20T22:35:54.938Z,20.90
2018-06-20T22:38:23.334Z,20.88
2018-06-20T22:40:51.922Z,20.81
2018-06-20T22:43:20.320Z,20.80
2018-06-20T22:45:49.325Z,20.78
2018-06-20T22:48:17.793Z,20.72
2018-06-20T22:50:46.231Z,20.69
2018-06-20T22:53:14.654Z,20.67
2018-06-20T22:55:43.340Z,20.66
2018-06-20T22:58:11.832Z,20.70
2018-06-20T23:00:40.316Z,20.72
2018-06-20T23:03:08.732Z,20.67
2018-06-20T23:05:37.108Z,20.67
2018-06-20T23:14:06.778Z,20.66
2018-06-20T23:16:35.236Z,20.63
2018-06-20T23:19:03.962Z,20.63
2018-06-20T23:21:32.351Z,20.63
2018-06-20T23:24:00.980Z,20.62
2018-06-20T23:26:29.494Z,20.55
2018-06-20T23:28:58.487Z,20.50
2018-06-20T23:31:26.914Z,20.43
2018-06-20T23:33:55.411Z,20.42
2018-06-20T23:36:24.219Z,20.39
2018-06-20T23:38:52.669Z,20.38
2018-06-20T23:41:21.071Z,20.35
2018-06-20T23:43:49.425Z,20.29
2018-06-20T23:46:17.986Z,20.25
2018-06-20T23:48:46.467Z,20.17
2018-06-20T23:51:15.050Z,20.10
2018-06-20T23:53:43.444Z,20.03
2018-06-20T23:56:11.855Z,19.97
2018-06-20T23:58:40.364Z,19.94
